sensor_id;sensor_type;location;lat;lon;timestamp;pressure;altitude;pressure_sealevel;temperature;humidity
85739;BME280;76182;41.498;22.100;2024-02-16T00:01:01;101037.44;;;1.37;69.95
85739;BME280;76182;41.498;22.100;2024-02-16T00:03:27;101050.59;;;1.37;69.98
85739;BME280;76182;41.498;22.100;2024-02-16T00:05:53;101039.66;;;1.25;69.89
85739;BME280;76182;41.498;22.100;2024-02-16T00:08:18;101042.34;;;1.23;70.33
85739;BME280;76182;41.498;22.100;2024-02-16T00:10:44;101032.59;;;1.27;70.25
85739;BME280;76182;41.498;22.100;2024-02-16T00:13:10;101047.53;;;1.25;70.11
85739;BME280;76182;41.498;22.100;2024-02-16T00:15:35;101040.84;;;1.16;70.54
85739;BME280;76182;41.498;22.100;2024-02-16T00:18:01;101040.41;;;1.03;70.49
85739;BME280;76182;41.498;22.100;2024-02-16T00:20:27;101046.69;;;0.99;71.23
85739;BME280;76182;41.498;22.100;2024-02-16T00:22:54;101046.50;;;0.79;72.36
85739;BME280;76182;41.498;22.100;2024-02-16T00:25:19;101051.66;;;0.82;71.73
85739;BME280;76182;41.498;22.100;2024-02-16T00:27:45;101058.34;;;0.92;71.08
85739;BME280;76182;41.498;22.100;2024-02-16T00:30:10;101061.91;;;0.89;71.48
85739;BME280;76182;41.498;22.100;2024-02-16T00:32:36;101055.59;;;0.95;72.08
85739;BME280;76182;41.498;22.100;2024-02-16T00:35:02;101060.97;;;0.92;70.56
85739;BME280;76182;41.498;22.100;2024-02-16T00:37:28;101033.47;;;0.76;70.53
85739;BME280;76182;41.498;22.100;2024-02-16T00:39:54;101017.03;;;0.44;71.58
85739;BME280;76182;41.498;22.100;2024-02-16T00:42:20;101058.00;;;0.76;71.78
85739;BME280;76182;41.498;22.100;2024-02-16T00:44:48;101049.81;;;0.85;71.11
85739;BME280;76182;41.498;22.100;2024-02-16T00:47:14;101043.78;;;0.82;70.69
85739;BME280;76182;41.498;22.100;2024-02-16T00:49:42;101056.41;;;0.71;71.46
85739;BME280;76182;41.498;22.100;2024-02-16T00:52:08;101058.22;;;0.68;72.09
85739;BME280;76182;41.498;22.100;2024-02-16T00:54:35;101048.66;;;0.67;70.94
85739;BME280;76182;41.498;22.100;2024-02-16T00:57:01;101048.53;;;0.71;72.54
85739;BME280;76182;41.498;22.100;2024-02-16T00:59:30;101046.50;;;0.79;71.64
85739;BME280;76182;41.498;22.100;2024-02-16T01:01:56;101052.00;;;0.73;70.89
85739;BME280;76182;41.498;22.100;2024-02-16T01:04:21;101052.97;;;0.68;71.58
85739;BME280;76182;41.498;22.100;2024-02-16T01:06:48;101034.31;;;0.51;72.19
85739;BME280;76182;41.498;22.100;2024-02-16T01:09:13;101045.31;;;0.62;72.08
85739;BME280;76182;41.498;22.100;2024-02-16T01:11:42;101049.56;;;0.66;72.24
85739;BME280;76182;41.498;22.100;2024-02-16T01:14:07;101048.78;;;0.63;72.67
85739;BME280;76182;41.498;22.100;2024-02-16T01:16:33;101050.44;;;0.65;71.98
85739;BME280;76182;41.498;22.100;2024-02-16T01:18:58;101046.72;;;0.46;71.59
85739;BME280;76182;41.498;22.100;2024-02-16T01:21:24;101038.75;;;0.49;71.23
85739;BME280;76182;41.498;22.100;2024-02-16T01:23:49;101048.44;;;0.47;72.21
85739;BME280;76182;41.498;22.100;2024-02-16T01:26:15;101034.16;;;0.29;72.25
85739;BME280;76182;41.498;22.100;2024-02-16T01:28:40;100992.09;;;0.04;73.10
85739;BME280;76182;41.498;22.100;2024-02-16T01:31:06;101040.91;;;0.36;71.94
85739;BME280;76182;41.498;22.100;2024-02-16T01:33:31;101042.63;;;0.37;71.13
85739;BME280;76182;41.498;22.100;2024-02-16T01:36:00;101045.63;;;0.25;72.88
85739;BME280;76182;41.498;22.100;2024-02-16T01:38:25;101048.25;;;0.25;72.72
85739;BME280;76182;41.498;22.100;2024-02-16T01:40:50;101046.53;;;0.24;72.18
85739;BME280;76182;41.498;22.100;2024-02-16T01:43:20;101041.47;;;0.19;73.41
85739;BME280;76182;41.498;22.100;2024-02-16T01:45:45;101049.34;;;0.19;73.27
85739;BME280;76182;41.498;22.100;2024-02-16T01:48:11;101038.56;;;0.27;71.86
85739;BME280;76182;41.498;22.100;2024-02-16T01:50:37;101041.38;;;0.22;73.46
85739;BME280;76182;41.498;22.100;2024-02-16T01:53:03;101044.13;;;0.18;72.62
85739;BME280;76182;41.498;22.100;2024-02-16T01:55:29;101048.59;;;0.14;72.67
85739;BME280;76182;41.498;22.100;2024-02-16T01:57:54;101047.22;;;0.03;73.69
85739;BME280;76182;41.498;22.100;2024-02-16T02:00:20;101051.78;;;-0.04;73.17
85739;BME280;76182;41.498;22.100;2024-02-16T02:02:47;101034.91;;;-0.24;73.69
85739;BME280;76182;41.498;22.100;2024-02-16T02:05:13;101046.72;;;-0.10;74.04
85739;BME280;76182;41.498;22.100;2024-02-16T02:07:40;101049.34;;;-0.10;74.42
85739;BME280;76182;41.498;22.100;2024-02-16T02:10:06;101029.22;;;-0.10;73.36
85739;BME280;76182;41.498;22.100;2024-02-16T02:12:32;101047.31;;;-0.01;74.07
85739;BME280;76182;41.498;22.100;2024-02-16T02:14:57;101038.06;;;-0.12;74.31
85739;BME280;76182;41.498;22.100;2024-02-16T02:17:22;101048.50;;;-0.11;74.57
85739;BME280;76182;41.498;22.100;2024-02-16T02:19:48;101045.94;;;-0.12;74.67
85739;BME280;76182;41.498;22.100;2024-02-16T02:22:15;101049.97;;;-0.02;73.77
85739;BME280;76182;41.498;22.100;2024-02-16T02:24:41;101046.13;;;0.10;74.33
85739;BME280;76182;41.498;22.100;2024-02-16T02:27:06;101040.25;;;0.02;74.41
85739;BME280;76182;41.498;22.100;2024-02-16T02:29:32;101035.16;;;-0.03;73.82
85739;BME280;76182;41.498;22.100;2024-02-16T02:31:58;101034.53;;;-0.11;73.77
85739;BME280;76182;41.498;22.100;2024-02-16T02:34:24;101045.94;;;-0.12;73.76
85739;BME280;76182;41.498;22.100;2024-02-16T02:36:49;101029.00;;;-0.32;74.06
85739;BME280;76182;41.498;22.100;2024-02-16T02:39:15;101046.91;;;-0.16;74.79
85739;BME280;76182;41.498;22.100;2024-02-16T02:41:40;101037.50;;;-0.22;72.99
85739;BME280;76182;41.498;22.100;2024-02-16T02:44:05;101040.66;;;-0.40;74.20
85739;BME280;76182;41.498;22.100;2024-02-16T02:46:31;101044.63;;;-0.27;74.71
85739;BME280;76182;41.498;22.100;2024-02-16T02:48:56;101030.94;;;-0.38;74.58
85739;BME280;76182;41.498;22.100;2024-02-16T02:51:22;101044.78;;;-0.33;74.06
85739;BME280;76182;41.498;22.100;2024-02-16T02:53:47;101054.63;;;-0.41;74.86
85739;BME280;76182;41.498;22.100;2024-02-16T02:56:12;101057.03;;;-0.34;74.70
85739;BME280;76182;41.498;22.100;2024-02-16T02:58:40;101054.25;;;-0.28;74.65
85739;BME280;76182;41.498;22.100;2024-02-16T03:01:06;101046.41;;;-0.29;74.27
85739;BME280;76182;41.498;22.100;2024-02-16T03:03:33;101050.13;;;-0.36;74.94
85739;BME280;76182;41.498;22.100;2024-02-16T03:05:59;101052.81;;;-0.38;74.78
85739;BME280;76182;41.498;22.100;2024-02-16T03:08:24;101032.78;;;-0.40;74.56
85739;BME280;76182;41.498;22.100;2024-02-16T03:10:50;101055.13;;;-0.58;75.36
85739;BME280;76182;41.498;22.100;2024-02-16T03:13:16;101056.75;;;-0.54;75.12
85739;BME280;76182;41.498;22.100;2024-02-16T03:15:44;101057.72;;;-0.57;74.83
85739;BME280;76182;41.498;22.100;2024-02-16T03:18:10;101051.13;;;-0.72;76.13
85739;BME280;76182;41.498;22.100;2024-02-16T03:20:35;101056.13;;;-0.62;75.77
85739;BME280;76182;41.498;22.100;2024-02-16T03:23:01;101050.63;;;-0.53;75.23
85739;BME280;76182;41.498;22.100;2024-02-16T03:25:27;101057.41;;;-0.46;75.62
85739;BME280;76182;41.498;22.100;2024-02-16T03:27:52;101061.69;;;-0.43;75.36
85739;BME280;76182;41.498;22.100;2024-02-16T03:30:21;101059.38;;;-0.54;75.47
85739;BME280;76182;41.498;22.100;2024-02-16T03:32:49;101056.22;;;-0.36;74.91
85739;BME280;76182;41.498;22.100;2024-02-16T03:35:16;101068.47;;;-0.36;75.54
85739;BME280;76182;41.498;22.100;2024-02-16T03:37:41;101068.94;;;-0.22;74.44
85739;BME280;76182;41.498;22.100;2024-02-16T03:40:07;101057.66;;;-0.26;73.14
85739;BME280;76182;41.498;22.100;2024-02-16T03:42:33;101054.78;;;-0.46;74.63
85739;BME280;76182;41.498;22.100;2024-02-16T03:44:59;101066.13;;;-0.45;74.50
85739;BME280;76182;41.498;22.100;2024-02-16T03:47:24;101067.97;;;-0.49;74.95
85739;BME280;76182;41.498;22.100;2024-02-16T03:49:50;101072.28;;;-0.48;74.88
85739;BME280;76182;41.498;22.100;2024-02-16T03:52:16;101054.34;;;-0.62;75.15
85739;BME280;76182;41.498;22.100;2024-02-16T03:54:41;101075.75;;;-0.46;74.36
85739;BME280;76182;41.498;22.100;2024-02-16T03:57:09;101076.22;;;-0.63;75.67
85739;BME280;76182;41.498;22.100;2024-02-16T03:59:37;101057.13;;;-0.68;75.33
85739;BME280;76182;41.498;22.100;2024-02-16T04:02:02;101078.78;;;-0.61;75.38
85739;BME280;76182;41.498;22.100;2024-02-16T04:04:27;101085.81;;;-0.63;75.06
85739;BME280;76182;41.498;22.100;2024-02-16T04:06:53;101085.22;;;-0.73;75.46
85739;BME280;76182;41.498;22.100;2024-02-16T04:09:18;101078.94;;;-0.66;75.00
85739;BME280;76182;41.498;22.100;2024-02-16T04:11:44;101083.28;;;-0.66;74.91
85739;BME280;76182;41.498;22.100;2024-02-16T04:14:10;101075.47;;;-0.68;75.49
85739;BME280;76182;41.498;22.100;2024-02-16T04:16:36;101080.63;;;-0.65;74.34
85739;BME280;76182;41.498;22.100;2024-02-16T04:19:01;101085.56;;;-0.54;75.16
85739;BME280;76182;41.498;22.100;2024-02-16T04:21:27;101087.41;;;-0.58;74.57
85739;BME280;76182;41.498;22.100;2024-02-16T04:23:52;101094.56;;;-0.63;74.80
85739;BME280;76182;41.498;22.100;2024-02-16T04:26:18;101092.91;;;-0.67;74.88
85739;BME280;76182;41.498;22.100;2024-02-16T04:28:43;101084.28;;;-0.71;74.61
85739;BME280;76182;41.498;22.100;2024-02-16T04:31:08;101095.50;;;-0.65;74.05
85739;BME280;76182;41.498;22.100;2024-02-16T04:33:34;101108.78;;;-0.73;74.88
85739;BME280;76182;41.498;22.100;2024-02-16T04:35:59;101102.53;;;-0.67;75.30
85739;BME280;76182;41.498;22.100;2024-02-16T04:38:25;101105.72;;;-0.89;74.94
85739;BME280;76182;41.498;22.100;2024-02-16T04:40:50;101110.25;;;-0.96;76.00
85739;BME280;76182;41.498;22.100;2024-02-16T04:43:15;101097.59;;;-0.78;75.49
85739;BME280;76182;41.498;22.100;2024-02-16T04:45:41;101110.75;;;-0.81;74.86
85739;BME280;76182;41.498;22.100;2024-02-16T04:48:07;101115.31;;;-0.88;76.64
85739;BME280;76182;41.498;22.100;2024-02-16T04:50:33;101115.06;;;-0.79;75.94
85739;BME280;76182;41.498;22.100;2024-02-16T04:52:58;101111.81;;;-0.88;75.95
85739;BME280;76182;41.498;22.100;2024-02-16T04:55:24;101111.53;;;-0.78;75.91
85739;BME280;76182;41.498;22.100;2024-02-16T04:57:49;101114.78;;;-0.68;75.38
85739;BME280;76182;41.498;22.100;2024-02-16T05:00:15;101113.16;;;-0.74;74.87
85739;BME280;76182;41.498;22.100;2024-02-16T05:02:40;101101.97;;;-0.79;75.38
85739;BME280;76182;41.498;22.100;2024-02-16T05:05:05;101108.31;;;-0.89;75.00
85739;BME280;76182;41.498;22.100;2024-02-16T05:07:31;101102.22;;;-0.88;75.53
85739;BME280;76182;41.498;22.100;2024-02-16T05:09:56;101113.56;;;-0.89;76.09
85739;BME280;76182;41.498;22.100;2024-02-16T05:12:23;101108.31;;;-0.87;75.48
85739;BME280;76182;41.498;22.100;2024-02-16T05:14:50;101114.31;;;-0.84;75.57
85739;BME280;76182;41.498;22.100;2024-02-16T05:17:15;101093.75;;;-0.98;75.69
85739;BME280;76182;41.498;22.100;2024-02-16T05:19:41;101117.09;;;-0.90;75.54
85739;BME280;76182;41.498;22.100;2024-02-16T05:22:06;101105.88;;;-0.95;75.56
85739;BME280;76182;41.498;22.100;2024-02-16T05:24:32;101112.00;;;-0.96;75.97
85739;BME280;76182;41.498;22.100;2024-02-16T05:26:57;101126.00;;;-0.97;75.98
85739;BME280;76182;41.498;22.100;2024-02-16T05:29:23;101116.56;;;-1.04;75.53
85739;BME280;76182;41.498;22.100;2024-02-16T05:31:50;101126.97;;;-1.01;75.77
85739;BME280;76182;41.498;22.100;2024-02-16T05:34:16;101121.66;;;-0.98;76.02
85739;BME280;76182;41.498;22.100;2024-02-16T05:36:41;101139.13;;;-0.99;77.00
85739;BME280;76182;41.498;22.100;2024-02-16T05:39:07;101125.78;;;-0.88;76.02
85739;BME280;76182;41.498;22.100;2024-02-16T05:41:45;101130.94;;;-0.85;75.91
85739;BME280;76182;41.498;22.100;2024-02-16T05:44:11;101131.19;;;-0.61;75.01
85739;BME280;76182;41.498;22.100;2024-02-16T05:46:36;101143.13;;;-0.51;74.79
85739;BME280;76182;41.498;22.100;2024-02-16T05:49:04;101139.03;;;-0.61;74.62
85739;BME280;76182;41.498;22.100;2024-02-16T05:51:36;101139.88;;;-0.59;74.76
85739;BME280;76182;41.498;22.100;2024-02-16T05:54:03;101142.81;;;-0.72;75.32
85739;BME280;76182;41.498;22.100;2024-02-16T05:56:28;101144.75;;;-0.80;75.93
85739;BME280;76182;41.498;22.100;2024-02-16T05:58:54;101133.69;;;-0.57;75.03
85739;BME280;76182;41.498;22.100;2024-02-16T06:01:19;101148.81;;;-0.35;74.27
85739;BME280;76182;41.498;22.100;2024-02-16T06:03:44;101142.72;;;-0.36;75.09
85739;BME280;76182;41.498;22.100;2024-02-16T06:06:10;101149.59;;;-0.32;75.07
85739;BME280;76182;41.498;22.100;2024-02-16T06:08:35;101143.28;;;-0.25;74.51
85739;BME280;76182;41.498;22.100;2024-02-16T06:11:00;101141.03;;;-0.07;74.32
85739;BME280;76182;41.498;22.100;2024-02-16T06:13:27;101142.88;;;0.19;73.32
85739;BME280;76182;41.498;22.100;2024-02-16T06:15:54;101135.84;;;0.49;72.48
85739;BME280;76182;41.498;22.100;2024-02-16T06:18:20;101136.94;;;0.98;70.54
85739;BME280;76182;41.498;22.100;2024-02-16T06:20:45;101121.66;;;1.09;69.11
85739;BME280;76182;41.498;22.100;2024-02-16T06:23:11;101129.28;;;2.14;67.40
85739;BME280;76182;41.498;22.100;2024-02-16T06:25:37;101131.34;;;2.95;64.12
85739;BME280;76182;41.498;22.100;2024-02-16T06:28:03;101141.06;;;3.15;63.60
85739;BME280;76182;41.498;22.100;2024-02-16T06:30:29;101141.16;;;2.92;64.95
85739;BME280;76182;41.498;22.100;2024-02-16T06:32:55;101139.88;;;4.03;61.66
85739;BME280;76182;41.498;22.100;2024-02-16T06:35:20;101123.00;;;4.62;59.68
85739;BME280;76182;41.498;22.100;2024-02-16T06:37:46;101135.44;;;4.03;60.38
85739;BME280;76182;41.498;22.100;2024-02-16T06:40:11;101131.88;;;3.85;61.41
85739;BME280;76182;41.498;22.100;2024-02-16T06:42:38;101152.22;;;3.63;63.43
85739;BME280;76182;41.498;22.100;2024-02-16T06:45:04;101143.44;;;4.21;63.99
85739;BME280;76182;41.498;22.100;2024-02-16T06:47:31;101138.91;;;4.79;60.86
85739;BME280;76182;41.498;22.100;2024-02-16T06:49:56;101131.16;;;4.57;61.89
85739;BME280;76182;41.498;22.100;2024-02-16T06:52:22;101125.25;;;5.06;60.92
85739;BME280;76182;41.498;22.100;2024-02-16T06:54:47;101063.72;;;4.85;59.63
85739;BME280;76182;41.498;22.100;2024-02-16T06:57:14;101140.44;;;6.21;57.22
85739;BME280;76182;41.498;22.100;2024-02-16T06:59:40;101142.59;;;5.46;58.76
85739;BME280;76182;41.498;22.100;2024-02-16T07:02:06;101138.84;;;6.50;56.77
85739;BME280;76182;41.498;22.100;2024-02-16T07:04:32;101126.34;;;6.52;55.44
85739;BME280;76182;41.498;22.100;2024-02-16T07:06:58;101131.22;;;7.06;54.62
85739;BME280;76182;41.498;22.100;2024-02-16T07:09:23;101133.72;;;7.53;52.39
85739;BME280;76182;41.498;22.100;2024-02-16T07:11:49;101130.03;;;7.56;52.36
85739;BME280;76182;41.498;22.100;2024-02-16T07:14:16;101137.41;;;7.36;52.96
85739;BME280;76182;41.498;22.100;2024-02-16T07:16:41;101134.38;;;7.12;54.62
85739;BME280;76182;41.498;22.100;2024-02-16T07:19:08;101127.31;;;7.57;53.24
85739;BME280;76182;41.498;22.100;2024-02-16T07:21:34;101133.19;;;8.05;53.40
85739;BME280;76182;41.498;22.100;2024-02-16T07:23:59;101141.53;;;6.96;54.78
85739;BME280;76182;41.498;22.100;2024-02-16T07:26:25;101100.78;;;6.19;56.81
85739;BME280;76182;41.498;22.100;2024-02-16T07:28:50;101140.88;;;6.77;57.59
85739;BME280;76182;41.498;22.100;2024-02-16T07:31:16;101136.69;;;5.58;59.56
85739;BME280;76182;41.498;22.100;2024-02-16T07:33:42;101139.25;;;6.42;58.39
85739;BME280;76182;41.498;22.100;2024-02-16T07:36:08;101139.59;;;6.52;58.03
85739;BME280;76182;41.498;22.100;2024-02-16T07:38:33;101129.28;;;6.93;56.49
85739;BME280;76182;41.498;22.100;2024-02-16T07:40:59;101134.78;;;6.27;59.04
85739;BME280;76182;41.498;22.100;2024-02-16T07:43:27;101139.81;;;5.15;62.98
85739;BME280;76182;41.498;22.100;2024-02-16T07:45:52;101145.09;;;5.15;63.30
85739;BME280;76182;41.498;22.100;2024-02-16T07:48:21;101141.13;;;5.06;64.50
85739;BME280;76182;41.498;22.100;2024-02-16T07:50:47;101147.34;;;5.05;65.06
85739;BME280;76182;41.498;22.100;2024-02-16T07:53:14;101067.69;;;4.76;64.45
85739;BME280;76182;41.498;22.100;2024-02-16T07:55:39;101142.69;;;5.27;63.99
85739;BME280;76182;41.498;22.100;2024-02-16T07:58:05;101146.78;;;5.68;63.13
85739;BME280;76182;41.498;22.100;2024-02-16T08:00:30;101145.28;;;5.79;62.96
85739;BME280;76182;41.498;22.100;2024-02-16T08:02:56;101110.84;;;5.79;61.76
85739;BME280;76182;41.498;22.100;2024-02-16T08:05:21;101145.16;;;6.16;61.71
85739;BME280;76182;41.498;22.100;2024-02-16T08:07:47;101152.44;;;5.95;61.80
85739;BME280;76182;41.498;22.100;2024-02-16T08:10:13;101078.47;;;5.41;61.22
85739;BME280;76182;41.498;22.100;2024-02-16T08:12:39;101145.03;;;6.01;60.80
85739;BME280;76182;41.498;22.100;2024-02-16T08:15:05;101145.75;;;6.37;59.58
85739;BME280;76182;41.498;22.100;2024-02-16T08:17:33;101146.28;;;6.43;59.69
85739;BME280;76182;41.498;22.100;2024-02-16T08:19:59;101132.84;;;6.78;59.64
85739;BME280;76182;41.498;22.100;2024-02-16T08:22:25;101136.56;;;6.90;58.52
85739;BME280;76182;41.498;22.100;2024-02-16T08:24:50;101143.97;;;7.15;57.83
85739;BME280;76182;41.498;22.100;2024-02-16T08:27:17;101139.09;;;7.37;55.72
85739;BME280;76182;41.498;22.100;2024-02-16T08:29:43;101135.44;;;7.54;54.72
85739;BME280;76182;41.498;22.100;2024-02-16T08:32:09;101141.31;;;7.59;54.38
85739;BME280;76182;41.498;22.100;2024-02-16T08:34:35;101142.13;;;7.76;55.54
85739;BME280;76182;41.498;22.100;2024-02-16T08:37:04;101137.00;;;7.87;53.99
85739;BME280;76182;41.498;22.100;2024-02-16T08:39:31;101132.06;;;7.81;55.74
85739;BME280;76182;41.498;22.100;2024-02-16T08:41:57;101134.44;;;7.85;53.82
85739;BME280;76182;41.498;22.100;2024-02-16T08:44:23;101127.41;;;7.84;55.15
85739;BME280;76182;41.498;22.100;2024-02-16T08:46:49;101121.25;;;7.98;54.88
85739;BME280;76182;41.498;22.100;2024-02-16T08:49:16;101123.63;;;8.17;53.79
85739;BME280;76182;41.498;22.100;2024-02-16T08:51:42;101127.66;;;8.37;53.95
85739;BME280;76182;41.498;22.100;2024-02-16T08:54:08;101127.47;;;8.54;54.19
85739;BME280;76182;41.498;22.100;2024-02-16T08:56:34;101130.41;;;8.64;52.41
85739;BME280;76182;41.498;22.100;2024-02-16T08:59:01;101114.97;;;8.42;54.28
85739;BME280;76182;41.498;22.100;2024-02-16T09:01:33;101128.84;;;8.74;53.59
85739;BME280;76182;41.498;22.100;2024-02-16T09:03:59;101118.16;;;9.01;51.53
85739;BME280;76182;41.498;22.100;2024-02-16T09:06:25;101115.66;;;9.13;51.06
85739;BME280;76182;41.498;22.100;2024-02-16T09:08:51;101118.53;;;9.22;51.02
85739;BME280;76182;41.498;22.100;2024-02-16T09:11:16;101116.63;;;9.12;50.94
85739;BME280;76182;41.498;22.100;2024-02-16T09:13:42;101105.69;;;9.42;51.94
85739;BME280;76182;41.498;22.100;2024-02-16T09:16:08;101114.09;;;9.48;50.47
85739;BME280;76182;41.498;22.100;2024-02-16T09:18:34;101107.00;;;9.62;49.61
85739;BME280;76182;41.498;22.100;2024-02-16T09:20:59;101115.41;;;9.68;50.86
85739;BME280;76182;41.498;22.100;2024-02-16T09:23:26;101112.81;;;9.92;50.35
85739;BME280;76182;41.498;22.100;2024-02-16T09:25:51;101117.69;;;10.11;49.36
85739;BME280;76182;41.498;22.100;2024-02-16T09:28:17;101111.53;;;10.11;49.63
85739;BME280;76182;41.498;22.100;2024-02-16T09:30:47;101108.16;;;10.46;49.29
85739;BME280;76182;41.498;22.100;2024-02-16T09:33:12;101107.63;;;10.53;48.91
85739;BME280;76182;41.498;22.100;2024-02-16T09:36:13;101109.88;;;10.71;47.92
85739;BME280;76182;41.498;22.100;2024-02-16T09:38:38;101106.28;;;10.22;50.05
85739;BME280;76182;41.498;22.100;2024-02-16T09:41:04;101103.38;;;10.38;48.36
85739;BME280;76182;41.498;22.100;2024-02-16T09:43:30;101096.47;;;10.23;49.57
85739;BME280;76182;41.498;22.100;2024-02-16T09:45:56;101102.72;;;10.47;47.59
85739;BME280;76182;41.498;22.100;2024-02-16T09:48:25;101084.03;;;10.71;48.14
85739;BME280;76182;41.498;22.100;2024-02-16T09:50:53;101079.97;;;10.78;48.31
85739;BME280;76182;41.498;22.100;2024-02-16T09:53:20;101079.03;;;10.90;47.41
85739;BME280;76182;41.498;22.100;2024-02-16T09:55:49;101072.91;;;11.12;46.92
85739;BME280;76182;41.498;22.100;2024-02-16T09:58:16;101072.81;;;11.14;46.56
85739;BME280;76182;41.498;22.100;2024-02-16T10:00:51;101072.34;;;11.20;47.60
85739;BME280;76182;41.498;22.100;2024-02-16T10:03:29;101079.81;;;11.04;46.80
85739;BME280;76182;41.498;22.100;2024-02-16T10:06:09;101070.09;;;11.03;47.85
85739;BME280;76182;41.498;22.100;2024-02-16T10:08:46;101074.16;;;11.20;46.01
85739;BME280;76182;41.498;22.100;2024-02-16T10:11:14;101063.00;;;11.26;47.57
85739;BME280;76182;41.498;22.100;2024-02-16T10:13:40;101059.78;;;11.45;45.81
85739;BME280;76182;41.498;22.100;2024-02-16T10:16:10;101056.72;;;11.49;43.95
85739;BME280;76182;41.498;22.100;2024-02-16T10:18:37;101045.56;;;11.55;45.41
85739;BME280;76182;41.498;22.100;2024-02-16T10:21:03;101045.81;;;11.64;44.89
85739;BME280;76182;41.498;22.100;2024-02-16T10:23:29;101048.97;;;11.57;45.78
85739;BME280;76182;41.498;22.100;2024-02-16T10:25:55;101035.09;;;11.75;45.71
85739;BME280;76182;41.498;22.100;2024-02-16T10:28:21;101032.59;;;11.85;45.42
85739;BME280;76182;41.498;22.100;2024-02-16T10:30:57;101036.69;;;11.77;44.92
85739;BME280;76182;41.498;22.100;2024-02-16T10:33:24;101032.22;;;11.89;44.18
85739;BME280;76182;41.498;22.100;2024-02-16T10:35:50;101023.72;;;11.73;44.83
85739;BME280;76182;41.498;22.100;2024-02-16T10:38:17;101018.97;;;11.76;44.75
85739;BME280;76182;41.498;22.100;2024-02-16T10:40:47;101019.56;;;12.02;44.89
85739;BME280;76182;41.498;22.100;2024-02-16T10:43:13;101016.53;;;11.96;44.79
85739;BME280;76182;41.498;22.100;2024-02-16T10:45:40;101007.63;;;12.06;43.68
85739;BME280;76182;41.498;22.100;2024-02-16T10:48:07;100998.88;;;11.82;43.56
85739;BME280;76182;41.498;22.100;2024-02-16T10:50:34;101003.41;;;11.70;44.06
85739;BME280;76182;41.498;22.100;2024-02-16T10:55:43;100991.75;;;11.94;44.63
85739;BME280;76182;41.498;22.100;2024-02-16T10:58:11;100994.16;;;11.97;44.56
85739;BME280;76182;41.498;22.100;2024-02-16T11:00:48;100980.63;;;12.21;44.03
85739;BME280;76182;41.498;22.100;2024-02-16T11:03:16;100983.47;;;12.08;44.60
85739;BME280;76182;41.498;22.100;2024-02-16T11:05:42;100975.63;;;12.27;43.99
85739;BME280;76182;41.498;22.100;2024-02-16T11:08:15;100971.28;;;12.04;44.04
85739;BME280;76182;41.498;22.100;2024-02-16T11:10:53;100964.91;;;12.27;43.32
85739;BME280;76182;41.498;22.100;2024-02-16T11:13:23;100971.84;;;12.30;43.01
85739;BME280;76182;41.498;22.100;2024-02-16T11:16:01;100971.84;;;12.30;42.76
85739;BME280;76182;41.498;22.100;2024-02-16T11:18:29;100950.94;;;12.24;42.40
85739;BME280;76182;41.498;22.100;2024-02-16T11:20:55;100951.78;;;12.24;42.12
85739;BME280;76182;41.498;22.100;2024-02-16T11:23:28;100963.00;;;12.07;43.45
85739;BME280;76182;41.498;22.100;2024-02-16T11:26:03;100949.13;;;12.24;43.03
85739;BME280;76182;41.498;22.100;2024-02-16T11:28:34;100948.34;;;12.55;42.44
85739;BME280;76182;41.498;22.100;2024-02-16T11:31:01;100937.03;;;12.62;41.70
85739;BME280;76182;41.498;22.100;2024-02-16T11:33:28;100943.81;;;12.66;41.42
85739;BME280;76182;41.498;22.100;2024-02-16T11:36:02;100938.75;;;12.31;42.77
85739;BME280;76182;41.498;22.100;2024-02-16T11:38:32;100928.22;;;12.18;42.32
85739;BME280;76182;41.498;22.100;2024-02-16T11:41:05;100928.34;;;12.49;42.30
85739;BME280;76182;41.498;22.100;2024-02-16T11:43:33;100923.63;;;12.62;41.76
85739;BME280;76182;41.498;22.100;2024-02-16T11:45:58;100912.91;;;12.41;42.23
85739;BME280;76182;41.498;22.100;2024-02-16T11:48:25;100912.66;;;12.65;41.21
85739;BME280;76182;41.498;22.100;2024-02-16T11:51:03;100909.41;;;12.62;41.35
85739;BME280;76182;41.498;22.100;2024-02-16T11:53:29;100891.81;;;12.48;41.40
85739;BME280;76182;41.498;22.100;2024-02-16T11:55:54;100903.84;;;12.74;41.20
85739;BME280;76182;41.498;22.100;2024-02-16T11:58:20;100862.28;;;12.49;40.96
85739;BME280;76182;41.498;22.100;2024-02-16T12:00:47;100898.41;;;12.86;40.63
85739;BME280;76182;41.498;22.100;2024-02-16T12:03:22;100896.03;;;12.92;40.24
85739;BME280;76182;41.498;22.100;2024-02-16T12:05:58;100888.34;;;12.99;41.27
85739;BME280;76182;41.498;22.100;2024-02-16T12:08:24;100883.47;;;12.83;41.29
85739;BME280;76182;41.498;22.100;2024-02-16T12:10:56;100877.94;;;13.06;40.18
85739;BME280;76182;41.498;22.100;2024-02-16T12:13:22;100885.31;;;12.92;40.97
85739;BME280;76182;41.498;22.100;2024-02-16T12:15:49;100872.97;;;13.01;40.84
85739;BME280;76182;41.498;22.100;2024-02-16T12:18:22;100880.34;;;13.09;38.98
85739;BME280;76182;41.498;22.100;2024-02-16T12:23:27;100869.66;;;13.18;40.39
85739;BME280;76182;41.498;22.100;2024-02-16T12:25:53;100868.81;;;13.18;40.64
85739;BME280;76182;41.498;22.100;2024-02-16T12:28:19;100869.00;;;13.26;41.09
85739;BME280;76182;41.498;22.100;2024-02-16T12:30:48;100862.53;;;13.29;40.31
85739;BME280;76182;41.498;22.100;2024-02-16T12:33:14;100865.25;;;13.38;39.26
85739;BME280;76182;41.498;22.100;2024-02-16T12:35:40;100858.03;;;13.39;38.24
85739;BME280;76182;41.498;22.100;2024-02-16T12:38:05;100846.78;;;13.14;38.66
85739;BME280;76182;41.498;22.100;2024-02-16T12:40:31;100851.84;;;13.08;39.45
85739;BME280;76182;41.498;22.100;2024-02-16T12:42:56;100851.19;;;13.15;39.09
85739;BME280;76182;41.498;22.100;2024-02-16T12:45:22;100850.41;;;13.25;39.85
85739;BME280;76182;41.498;22.100;2024-02-16T12:47:47;100846.91;;;13.34;39.56